This is the latest recevied weather packets stored in our database for station/object OE-4057. If no packets are shown the sender has not sent any weather packets the latest 10 day(s).
| Time | Temp. | Humidity | Pressure | Rain* | Wind** | Luminosity | Snow |
|---|---|---|---|---|---|---|---|
| 1788347471 | 23.33° C | 47% | 1019.1 hPa | - | - | - | - |
| 1788345671 | 22.22° C | 51% | 1020.5 hPa | - | - | - | - |
| 1788343871 | 21.67° C | 56% | 1020.6 hPa | - | - | - | - |
| 1788342071 | 20.56° C | 60% | 1020.9 hPa | - | - | - | - |
| 1788340271 | 19.44° C | 64% | 1022.2 hPa | - | - | - | - |
| 1788338471 | 18.33° C | 68% | 1022.5 hPa | - | - | - | - |
| 1788336671 | 17.22° C | 71% | 1022.8 hPa | - | - | - | - |
| 1788334871 | 16.11° C | 75% | 1023.1 hPa | - | - | - | - |
| 1788333191 | 14.44° C | 81% | 1023.5 hPa | - | - | - | - |
| 1788331271 | 13.89° C | 84% | 1023.7 hPa | - | - | - | - |
| 1788329471 | 12.22° C | 89% | 1024.1 hPa | - | - | - | - |
| 1788327671 | 12.22° C | 91% | 1024.1 hPa | - | - | - | - |
| 1788325871 | 12.22° C | 90% | 1024.1 hPa | - | - | - | - |
| 1788300672 | 16.67° C | 78% | 1023 hPa | - | - | - | - |
| 1788298872 | 17.22° C | 76% | 1022.9 hPa | - | - | - | - |
| 1788284472 | 20.56° C | 62% | 1019.8 hPa | - | - | - | - |
| 1788282671 | 21.11° C | 57% | 1019.6 hPa | - | - | - | - |
| 1788277272 | 22.78° C | 50% | 1019.3 hPa | - | - | - | - |
| 1788270071 | 23.33° C | 47% | 1019.1 hPa | - | - | - | - |
| 1788268271 | 23.33° C | 46% | 1019.1 hPa | - | - | - | - |
| 1788266471 | 23.33° C | 44% | 1019.1 hPa | - | - | - | - |
| 1788264670 | 23.33° C | 47% | 1020.2 hPa | - | - | - | - |
| 1788262871 | 22.78° C | 46% | 1020.4 hPa | - | - | - | - |
| 1788261071 | 21.67° C | 54% | 1020.6 hPa | - | - | - | - |
| 1788259271 | 20.56° C | 59% | 1020.9 hPa | - | - | - | - |
* Rain since midnight (hover to see other rain measurements)
** Current wind speed in m/s (hover to see current wind gust speed)